sensor_id;sensor_type;location;lat;lon;timestamp;pressure;altitude;pressure_sealevel;temperature;humidity
21960;BME280;11144;43.030;25.108;2023-07-31T00:00:43;98892.41;;;24.21;63.88
21960;BME280;11144;43.030;25.108;2023-07-31T00:02:16;98884.16;;;24.17;64.22
21960;BME280;11144;43.030;25.108;2023-07-31T00:03:49;98891.91;;;24.18;63.58
21960;BME280;11144;43.030;25.108;2023-07-31T00:05:21;98884.38;;;24.21;63.58
21960;BME280;11144;43.030;25.108;2023-07-31T00:06:58;98877.16;;;24.21;63.38
21960;BME280;11144;43.030;25.108;2023-07-31T00:08:30;98872.59;;;24.22;63.37
21960;BME280;11144;43.030;25.108;2023-07-31T00:10:04;98869.63;;;24.23;63.42
21960;BME280;11144;43.030;25.108;2023-07-31T00:11:36;98867.75;;;24.24;63.40
21960;BME280;11144;43.030;25.108;2023-07-31T00:13:09;98863.50;;;24.23;63.61
21960;BME280;11144;43.030;25.108;2023-07-31T00:14:44;98858.47;;;24.16;63.31
21960;BME280;11144;43.030;25.108;2023-07-31T00:16:17;98859.25;;;24.16;63.56
21960;BME280;11144;43.030;25.108;2023-07-31T00:17:50;98860.28;;;24.21;63.49
21960;BME280;11144;43.030;25.108;2023-07-31T00:19:23;98853.34;;;24.20;63.99
21960;BME280;11144;43.030;25.108;2023-07-31T00:20:55;98858.19;;;24.17;64.00
21960;BME280;11144;43.030;25.108;2023-07-31T00:22:28;98862.22;;;24.15;64.16
21960;BME280;11144;43.030;25.108;2023-07-31T00:24:02;98852.34;;;24.10;63.91
21960;BME280;11144;43.030;25.108;2023-07-31T00:25:34;98860.38;;;24.10;64.10
21960;BME280;11144;43.030;25.108;2023-07-31T00:27:08;98860.66;;;24.09;64.51
21960;BME280;11144;43.030;25.108;2023-07-31T00:28:41;98858.00;;;23.99;64.60
21960;BME280;11144;43.030;25.108;2023-07-31T00:30:16;98853.03;;;23.87;64.35
21960;BME280;11144;43.030;25.108;2023-07-31T00:31:48;98854.13;;;23.81;65.92
21960;BME280;11144;43.030;25.108;2023-07-31T00:33:25;98856.88;;;23.71;65.68
21960;BME280;11144;43.030;25.108;2023-07-31T00:34:58;98852.38;;;23.62;66.60
21960;BME280;11144;43.030;25.108;2023-07-31T00:36:30;98853.78;;;23.54;66.04
21960;BME280;11144;43.030;25.108;2023-07-31T00:38:03;98841.25;;;23.44;66.93
21960;BME280;11144;43.030;25.108;2023-07-31T00:39:37;98852.47;;;23.47;67.16
21960;BME280;11144;43.030;25.108;2023-07-31T00:41:10;98851.13;;;23.44;67.64
21960;BME280;11144;43.030;25.108;2023-07-31T00:42:43;98845.81;;;23.39;68.14
21960;BME280;11144;43.030;25.108;2023-07-31T00:44:16;98845.28;;;23.37;68.61
21960;BME280;11144;43.030;25.108;2023-07-31T00:45:50;98832.19;;;23.35;67.52
21960;BME280;11144;43.030;25.108;2023-07-31T00:47:23;98834.34;;;23.33;67.61
21960;BME280;11144;43.030;25.108;2023-07-31T00:48:57;98826.56;;;23.32;68.15
21960;BME280;11144;43.030;25.108;2023-07-31T00:50:30;98823.34;;;23.30;67.97
21960;BME280;11144;43.030;25.108;2023-07-31T00:52:03;98823.91;;;23.27;68.17
21960;BME280;11144;43.030;25.108;2023-07-31T00:53:37;98826.63;;;23.22;68.06
21960;BME280;11144;43.030;25.108;2023-07-31T00:55:11;98828.53;;;23.16;68.64
21960;BME280;11144;43.030;25.108;2023-07-31T00:56:45;98827.19;;;23.14;68.64
21960;BME280;11144;43.030;25.108;2023-07-31T00:58:18;98831.72;;;23.13;68.66
21960;BME280;11144;43.030;25.108;2023-07-31T00:59:51;98826.16;;;23.10;69.14
21960;BME280;11144;43.030;25.108;2023-07-31T01:01:27;98827.75;;;23.06;69.19
21960;BME280;11144;43.030;25.108;2023-07-31T01:03:01;98823.78;;;22.98;69.96
21960;BME280;11144;43.030;25.108;2023-07-31T01:04:33;98817.63;;;22.93;70.59
21960;BME280;11144;43.030;25.108;2023-07-31T01:06:15;98819.53;;;22.87;70.79
21960;BME280;11144;43.030;25.108;2023-07-31T01:07:53;98820.88;;;22.85;70.12
21960;BME280;11144;43.030;25.108;2023-07-31T01:09:37;98825.72;;;22.83;71.15
21960;BME280;11144;43.030;25.108;2023-07-31T01:11:16;98820.66;;;22.81;69.93
21960;BME280;11144;43.030;25.108;2023-07-31T01:12:50;98824.09;;;22.82;69.98
21960;BME280;11144;43.030;25.108;2023-07-31T01:14:24;98820.38;;;22.78;69.60
21960;BME280;11144;43.030;25.108;2023-07-31T01:15:56;98827.31;;;22.79;70.77
21960;BME280;11144;43.030;25.108;2023-07-31T01:17:31;98824.13;;;22.77;70.04
21960;BME280;11144;43.030;25.108;2023-07-31T01:19:03;98822.75;;;22.79;70.24
21960;BME280;11144;43.030;25.108;2023-07-31T01:20:37;98829.97;;;22.84;71.02
21960;BME280;11144;43.030;25.108;2023-07-31T01:22:18;98820.38;;;22.83;71.04
21960;BME280;11144;43.030;25.108;2023-07-31T01:24:16;98814.50;;;22.81;72.63
21960;BME280;11144;43.030;25.108;2023-07-31T01:26:06;98812.06;;;22.79;72.03
21960;BME280;11144;43.030;25.108;2023-07-31T01:27:49;98815.84;;;22.78;71.50
21960;BME280;11144;43.030;25.108;2023-07-31T01:29:32;98814.78;;;22.74;71.75
21960;BME280;11144;43.030;25.108;2023-07-31T01:31:12;98816.41;;;22.70;71.00
21960;BME280;11144;43.030;25.108;2023-07-31T01:32:48;98811.31;;;22.68;71.90
21960;BME280;11144;43.030;25.108;2023-07-31T01:34:21;98805.19;;;22.63;71.46
21960;BME280;11144;43.030;25.108;2023-07-31T01:35:56;98813.47;;;22.61;71.87
21960;BME280;11144;43.030;25.108;2023-07-31T01:37:29;98804.34;;;22.57;72.47
21960;BME280;11144;43.030;25.108;2023-07-31T01:39:02;98802.78;;;22.51;72.11
21960;BME280;11144;43.030;25.108;2023-07-31T01:40:36;98806.25;;;22.47;72.03
21960;BME280;11144;43.030;25.108;2023-07-31T01:42:10;98801.44;;;22.44;71.81
21960;BME280;11144;43.030;25.108;2023-07-31T01:43:43;98805.19;;;22.38;71.64
21960;BME280;11144;43.030;25.108;2023-07-31T01:45:15;98802.81;;;22.36;72.16
21960;BME280;11144;43.030;25.108;2023-07-31T01:46:48;98805.47;;;22.36;72.55
21960;BME280;11144;43.030;25.108;2023-07-31T01:48:22;98803.34;;;22.33;72.80
21960;BME280;11144;43.030;25.108;2023-07-31T01:49:54;98796.41;;;22.32;73.30
21960;BME280;11144;43.030;25.108;2023-07-31T01:51:27;98796.94;;;22.34;73.59
21960;BME280;11144;43.030;25.108;2023-07-31T01:53:00;98795.31;;;22.28;73.41
21960;BME280;11144;43.030;25.108;2023-07-31T01:54:34;98796.41;;;22.22;73.64
21960;BME280;11144;43.030;25.108;2023-07-31T01:56:08;98793.50;;;22.19;73.09
21960;BME280;11144;43.030;25.108;2023-07-31T01:57:42;98794.28;;;22.14;73.36
21960;BME280;11144;43.030;25.108;2023-07-31T01:59:15;98796.44;;;22.12;73.74
21960;BME280;11144;43.030;25.108;2023-07-31T02:00:47;98785.75;;;22.12;73.96
21960;BME280;11144;43.030;25.108;2023-07-31T02:02:21;98777.75;;;22.07;73.99
21960;BME280;11144;43.030;25.108;2023-07-31T02:03:56;98792.16;;;22.06;74.29
21960;BME280;11144;43.030;25.108;2023-07-31T02:05:29;98788.41;;;22.02;74.09
21960;BME280;11144;43.030;25.108;2023-07-31T02:07:02;98786.03;;;22.00;74.63
21960;BME280;11144;43.030;25.108;2023-07-31T02:08:35;98786.81;;;21.96;74.72
21960;BME280;11144;43.030;25.108;2023-07-31T02:10:07;98777.22;;;21.90;74.95
21960;BME280;11144;43.030;25.108;2023-07-31T02:11:41;98783.09;;;21.87;75.33
21960;BME280;11144;43.030;25.108;2023-07-31T02:13:15;98777.22;;;21.85;74.99
21960;BME280;11144;43.030;25.108;2023-07-31T02:14:48;98783.59;;;21.84;75.15
21960;BME280;11144;43.030;25.108;2023-07-31T02:16:21;98784.13;;;21.81;75.32
21960;BME280;11144;43.030;25.108;2023-07-31T02:17:54;98784.69;;;21.83;75.66
21960;BME280;11144;43.030;25.108;2023-07-31T02:19:26;98785.72;;;21.82;75.33
21960;BME280;11144;43.030;25.108;2023-07-31T02:21:00;98782.50;;;21.80;75.85
21960;BME280;11144;43.030;25.108;2023-07-31T02:22:35;98779.34;;;21.83;75.37
21960;BME280;11144;43.030;25.108;2023-07-31T02:24:07;98780.94;;;21.79;75.84
21960;BME280;11144;43.030;25.108;2023-07-31T02:25:40;98779.06;;;21.74;75.71
21960;BME280;11144;43.030;25.108;2023-07-31T02:27:13;98783.84;;;21.67;76.33
21960;BME280;11144;43.030;25.108;2023-07-31T02:28:48;98783.03;;;21.67;76.24
21960;BME280;11144;43.030;25.108;2023-07-31T02:30:21;98783.03;;;21.67;75.99
21960;BME280;11144;43.030;25.108;2023-07-31T02:31:53;98781.97;;;21.63;76.06
21960;BME280;11144;43.030;25.108;2023-07-31T02:33:26;98776.09;;;21.56;76.51
21960;BME280;11144;43.030;25.108;2023-07-31T02:34:59;98789.16;;;21.57;76.33
21960;BME280;11144;43.030;25.108;2023-07-31T02:36:32;98789.16;;;21.57;76.58
21960;BME280;11144;43.030;25.108;2023-07-31T02:38:05;98794.50;;;21.62;76.42
21960;BME280;11144;43.030;25.108;2023-07-31T02:39:38;98798.00;;;21.68;76.43
21960;BME280;11144;43.030;25.108;2023-07-31T02:41:11;98791.03;;;21.67;76.54
21960;BME280;11144;43.030;25.108;2023-07-31T02:42:44;98805.97;;;21.73;76.76
21960;BME280;11144;43.030;25.108;2023-07-31T02:44:18;98805.19;;;21.77;76.55
21960;BME280;11144;43.030;25.108;2023-07-31T02:45:52;98795.03;;;21.79;76.74
21960;BME280;11144;43.030;25.108;2023-07-31T02:47:25;98793.72;;;21.82;76.49
21960;BME280;11144;43.030;25.108;2023-07-31T02:48:58;98795.09;;;21.84;76.52
21960;BME280;11144;43.030;25.108;2023-07-31T02:50:31;98796.44;;;21.87;76.86
21960;BME280;11144;43.030;25.108;2023-07-31T02:52:04;98800.72;;;21.88;76.28
21960;BME280;11144;43.030;25.108;2023-07-31T02:53:37;98806.59;;;21.90;76.06
21960;BME280;11144;43.030;25.108;2023-07-31T02:55:10;98803.91;;;21.90;76.35
21960;BME280;11144;43.030;25.108;2023-07-31T02:56:43;98805.50;;;21.91;76.50
21960;BME280;11144;43.030;25.108;2023-07-31T02:58:15;98801.25;;;21.90;76.92
21960;BME280;11144;43.030;25.108;2023-07-31T02:59:50;98800.97;;;21.91;76.45
21960;BME280;11144;43.030;25.108;2023-07-31T03:01:22;98802.31;;;21.94;76.60
21960;BME280;11144;43.030;25.108;2023-07-31T03:02:55;98802.84;;;21.96;76.62
21960;BME280;11144;43.030;25.108;2023-07-31T03:04:28;98805.50;;;21.96;76.68
21960;BME280;11144;43.030;25.108;2023-07-31T03:06:01;98809.78;;;21.97;76.53
21960;BME280;11144;43.030;25.108;2023-07-31T03:07:34;98804.69;;;21.95;76.69
21960;BME280;11144;43.030;25.108;2023-07-31T03:09:07;98811.38;;;21.98;76.89
21960;BME280;11144;43.030;25.108;2023-07-31T03:10:39;98812.47;;;21.97;76.71
21960;BME280;11144;43.030;25.108;2023-07-31T03:12:12;98813.78;;;21.99;76.83
21960;BME280;11144;43.030;25.108;2023-07-31T03:13:45;98809.25;;;22.00;76.84
21960;BME280;11144;43.030;25.108;2023-07-31T03:15:19;98813.25;;;22.02;76.67
21960;BME280;11144;43.030;25.108;2023-07-31T03:16:51;98821.53;;;22.01;77.10
21960;BME280;11144;43.030;25.108;2023-07-31T03:18:25;98821.53;;;22.01;76.86
21960;BME280;11144;43.030;25.108;2023-07-31T03:19:57;98827.94;;;22.05;77.27
21960;BME280;11144;43.030;25.108;2023-07-31T03:21:30;98822.84;;;22.09;77.00
21960;BME280;11144;43.030;25.108;2023-07-31T03:23:03;98824.72;;;22.13;76.95
21960;BME280;11144;43.030;25.108;2023-07-31T03:24:36;98832.47;;;22.10;76.97
21960;BME280;11144;43.030;25.108;2023-07-31T03:26:09;98827.94;;;22.05;76.79
21960;BME280;11144;43.030;25.108;2023-07-31T03:27:41;98831.13;;;22.07;76.79
21960;BME280;11144;43.030;25.108;2023-07-31T03:29:15;98834.06;;;22.06;76.93
21960;BME280;11144;43.030;25.108;2023-07-31T03:30:48;98837.81;;;22.05;77.08
21960;BME280;11144;43.030;25.108;2023-07-31T03:32:22;98837.53;;;22.06;76.49
21960;BME280;11144;43.030;25.108;2023-07-31T03:33:55;98836.75;;;22.06;76.91
21960;BME280;11144;43.030;25.108;2023-07-31T03:35:27;98830.31;;;22.07;77.27
21960;BME280;11144;43.030;25.108;2023-07-31T03:37:01;98839.69;;;21.99;77.34
21960;BME280;11144;43.030;25.108;2023-07-31T03:38:35;98841.00;;;21.96;77.22
21960;BME280;11144;43.030;25.108;2023-07-31T03:40:08;98841.56;;;22.04;77.32
21960;BME280;11144;43.030;25.108;2023-07-31T03:41:41;98842.34;;;22.09;77.39
21960;BME280;11144;43.030;25.108;2023-07-31T03:43:15;98849.28;;;22.15;77.28
21960;BME280;11144;43.030;25.108;2023-07-31T03:44:47;98837.53;;;22.16;77.13
21960;BME280;11144;43.030;25.108;2023-07-31T03:46:23;98835.13;;;22.20;76.80
21960;BME280;11144;43.030;25.108;2023-07-31T03:47:55;98833.25;;;22.15;77.03
21960;BME280;11144;43.030;25.108;2023-07-31T03:49:30;98831.94;;;22.18;76.80
21960;BME280;11144;43.030;25.108;2023-07-31T03:51:03;98830.06;;;22.18;76.93
21960;BME280;11144;43.030;25.108;2023-07-31T03:52:36;98834.59;;;22.18;77.05
21960;BME280;11144;43.030;25.108;2023-07-31T03:54:08;98816.72;;;22.08;77.17
21960;BME280;11144;43.030;25.108;2023-07-31T03:55:41;98836.47;;;22.07;77.16
21960;BME280;11144;43.030;25.108;2023-07-31T03:57:14;98836.75;;;22.00;77.22
21960;BME280;11144;43.030;25.108;2023-07-31T03:58:47;98841.53;;;21.93;76.73
21960;BME280;11144;43.030;25.108;2023-07-31T04:00:19;98845.81;;;21.89;77.42
21960;BME280;11144;43.030;25.108;2023-07-31T04:01:55;98841.25;;;21.85;77.56
21960;BME280;11144;43.030;25.108;2023-07-31T04:03:27;98847.66;;;21.89;77.94
21960;BME280;11144;43.030;25.108;2023-07-31T04:05:01;98850.34;;;21.89;77.94
21960;BME280;11144;43.030;25.108;2023-07-31T04:06:33;98841.25;;;21.85;78.26
21960;BME280;11144;43.030;25.108;2023-07-31T04:08:06;98852.75;;;21.85;77.96
21960;BME280;11144;43.030;25.108;2023-07-31T04:09:39;98849.53;;;21.88;78.28
21960;BME280;11144;43.030;25.108;2023-07-31T04:11:12;98849.00;;;21.91;77.98
21960;BME280;11144;43.030;25.108;2023-07-31T04:12:44;98851.16;;;21.94;78.24
21960;BME280;11144;43.030;25.108;2023-07-31T04:14:17;98852.72;;;21.90;77.67
21960;BME280;11144;43.030;25.108;2023-07-31T04:15:50;98845.53;;;21.91;78.05
21960;BME280;11144;43.030;25.108;2023-07-31T04:17:24;98854.09;;;21.88;78.03
21960;BME280;11144;43.030;25.108;2023-07-31T04:18:56;98857.28;;;21.85;78.02
21960;BME280;11144;43.030;25.108;2023-07-31T04:20:30;98860.19;;;21.88;78.40
21960;BME280;11144;43.030;25.108;2023-07-31T04:22:02;98867.94;;;21.95;78.28
21960;BME280;11144;43.030;25.108;2023-07-31T04:23:35;98865.28;;;21.95;78.53
21960;BME280;11144;43.030;25.108;2023-07-31T04:25:09;98862.91;;;21.98;78.20
21960;BME280;11144;43.030;25.108;2023-07-31T04:26:41;98857.81;;;21.92;78.00
21960;BME280;11144;43.030;25.108;2023-07-31T04:28:14;98866.38;;;21.99;78.14
21960;BME280;11144;43.030;25.108;2023-07-31T04:29:46;98867.44;;;21.98;78.08
21960;BME280;11144;43.030;25.108;2023-07-31T04:31:20;98871.19;;;21.97;78.36
21960;BME280;11144;43.030;25.108;2023-07-31T04:32:54;98872.22;;;22.06;78.22
21960;BME280;11144;43.030;25.108;2023-07-31T04:34:27;98872.78;;;22.08;78.36
21960;BME280;11144;43.030;25.108;2023-07-31T04:36:00;98877.84;;;22.10;78.28
21960;BME280;11144;43.030;25.108;2023-07-31T04:37:32;98877.56;;;22.06;78.50
21960;BME280;11144;43.030;25.108;2023-07-31T04:39:06;98868.50;;;22.07;77.96
21960;BME280;11144;43.030;25.108;2023-07-31T04:40:39;98873.03;;;22.07;77.88
21960;BME280;11144;43.030;25.108;2023-07-31T04:42:11;98878.38;;;22.07;77.71
21960;BME280;11144;43.030;25.108;2023-07-31T04:43:45;98878.13;;;22.08;77.80
21960;BME280;11144;43.030;25.108;2023-07-31T04:45:17;98871.19;;;22.07;77.65
21960;BME280;11144;43.030;25.108;2023-07-31T04:46:50;98873.03;;;22.07;77.77
21960;BME280;11144;43.030;25.108;2023-07-31T04:48:25;98881.31;;;22.05;77.80
21960;BME280;11144;43.030;25.108;2023-07-31T04:49:57;98885.03;;;22.04;77.85
21960;BME280;11144;43.030;25.108;2023-07-31T04:51:30;98888.53;;;22.10;77.70
21960;BME280;11144;43.030;25.108;2023-07-31T04:53:04;98888.28;;;22.16;77.71
21960;BME280;11144;43.030;25.108;2023-07-31T04:54:36;98895.19;;;22.17;77.82
21960;BME280;11144;43.030;25.108;2023-07-31T04:56:10;98892.53;;;22.17;78.07
21960;BME280;11144;43.030;25.108;2023-07-31T04:57:45;98884.53;;;22.22;77.58
21960;BME280;11144;43.030;25.108;2023-07-31T04:59:17;98889.06;;;22.27;77.57
21960;BME280;11144;43.030;25.108;2023-07-31T05:00:50;98888.00;;;22.23;77.72
21960;BME280;11144;43.030;25.108;2023-07-31T05:02:22;98886.13;;;22.18;77.96
21960;BME280;11144;43.030;25.108;2023-07-31T05:03:57;98889.88;;;22.22;77.66
21960;BME280;11144;43.030;25.108;2023-07-31T05:05:31;98886.13;;;22.28;78.15
21960;BME280;11144;43.030;25.108;2023-07-31T05:07:03;98899.47;;;22.33;77.79
21960;BME280;11144;43.030;25.108;2023-07-31T05:08:37;98894.94;;;22.34;77.84
21960;BME280;11144;43.030;25.108;2023-07-31T05:10:09;98894.94;;;22.34;77.41
21960;BME280;11144;43.030;25.108;2023-07-31T05:11:42;98893.63;;;22.36;77.49
21960;BME280;11144;43.030;25.108;2023-07-31T05:13:14;98895.22;;;22.42;77.59
21960;BME280;11144;43.030;25.108;2023-07-31T05:14:48;98892.78;;;22.46;77.31
21960;BME280;11144;43.030;25.108;2023-07-31T05:16:20;98896.81;;;22.48;77.60
21960;BME280;11144;43.030;25.108;2023-07-31T05:17:53;98897.31;;;22.50;77.13
21960;BME280;11144;43.030;25.108;2023-07-31T05:19:27;98896.81;;;22.53;77.05
21960;BME280;11144;43.030;25.108;2023-07-31T05:21:00;98888.00;;;22.48;77.11
21960;BME280;11144;43.030;25.108;2023-07-31T05:22:34;98896.81;;;22.53;77.12
21960;BME280;11144;43.030;25.108;2023-07-31T05:24:06;98891.47;;;22.53;76.58
21960;BME280;11144;43.030;25.108;2023-07-31T05:25:39;98900.00;;;22.55;76.81
21960;BME280;11144;43.030;25.108;2023-07-31T05:27:12;98896.00;;;22.58;76.17
21960;BME280;11144;43.030;25.108;2023-07-31T05:28:46;98900.53;;;22.57;75.86
21960;BME280;11144;43.030;25.108;2023-07-31T05:30:19;98900.03;;;22.60;76.12
21960;BME280;11144;43.030;25.108;2023-07-31T05:31:53;98904.81;;;22.63;76.16
21960;BME280;11144;43.030;25.108;2023-07-31T05:33:26;98902.16;;;22.68;75.76
21960;BME280;11144;43.030;25.108;2023-07-31T05:35:00;98893.06;;;22.59;75.73
21960;BME280;11144;43.030;25.108;2023-07-31T05:36:33;98889.06;;;22.47;76.01
21960;BME280;11144;43.030;25.108;2023-07-31T05:38:05;98900.00;;;22.55;75.96
21960;BME280;11144;43.030;25.108;2023-07-31T05:39:39;98900.00;;;22.55;75.95
21960;BME280;11144;43.030;25.108;2023-07-31T05:41:12;98894.66;;;22.55;75.67
21960;BME280;11144;43.030;25.108;2023-07-31T05:42:45;98903.22;;;22.57;75.99
21960;BME280;11144;43.030;25.108;2023-07-31T05:44:18;98896.28;;;22.56;76.04
21960;BME280;11144;43.030;25.108;2023-07-31T05:45:51;98896.81;;;22.58;76.19
21960;BME280;11144;43.030;25.108;2023-07-31T05:47:24;98904.31;;;22.61;74.03
21960;BME280;11144;43.030;25.108;2023-07-31T05:48:56;98900.03;;;22.65;73.67
21960;BME280;11144;43.030;25.108;2023-07-31T05:50:33;98907.78;;;22.72;72.73
21960;BME280;11144;43.030;25.108;2023-07-31T05:52:06;98908.28;;;22.79;72.15
21960;BME280;11144;43.030;25.108;2023-07-31T05:53:39;98905.88;;;22.83;71.48
21960;BME280;11144;43.030;25.108;2023-07-31T05:55:12;98904.81;;;22.84;71.96
21960;BME280;11144;43.030;25.108;2023-07-31T05:56:46;98911.22;;;22.88;71.95
21960;BME280;11144;43.030;25.108;2023-07-31T05:58:18;98918.44;;;22.92;71.25
21960;BME280;11144;43.030;25.108;2023-07-31T05:59:52;98908.00;;;22.96;70.86
21960;BME280;11144;43.030;25.108;2023-07-31T06:01:25;98917.88;;;23.00;70.69
21960;BME280;11144;43.030;25.108;2023-07-31T06:02:58;98917.06;;;23.05;70.46
21960;BME280;11144;43.030;25.108;2023-07-31T06:04:32;98901.84;;;22.95;71.06
21960;BME280;11144;43.030;25.108;2023-07-31T06:06:06;98907.72;;;23.02;70.28
21960;BME280;11144;43.030;25.108;2023-07-31T06:07:39;98911.72;;;23.05;69.00
21960;BME280;11144;43.030;25.108;2023-07-31T06:09:11;98913.06;;;23.02;67.28
21960;BME280;11144;43.030;25.108;2023-07-31T06:10:45;98914.09;;;23.06;69.57
21960;BME280;11144;43.030;25.108;2023-07-31T06:12:19;98918.13;;;23.09;69.32
21960;BME280;11144;43.030;25.108;2023-07-31T06:13:51;98915.44;;;23.14;68.84
21960;BME280;11144;43.030;25.108;2023-07-31T06:15:24;98919.69;;;23.20;68.63
21960;BME280;11144;43.030;25.108;2023-07-31T06:16:56;98917.53;;;23.27;68.43
21960;BME280;11144;43.030;25.108;2023-07-31T06:18:30;98920.72;;;23.29;68.32
21960;BME280;11144;43.030;25.108;2023-07-31T06:20:02;98919.09;;;23.33;67.18
21960;BME280;11144;43.030;25.108;2023-07-31T06:21:38;98923.94;;;23.36;67.99
21960;BME280;11144;43.030;25.108;2023-07-31T06:23:10;98915.88;;;23.41;67.90
21960;BME280;11144;43.030;25.108;2023-07-31T06:24:44;98916.91;;;23.50;67.35
21960;BME280;11144;43.030;25.108;2023-07-31T06:26:16;98925.44;;;23.57;66.77
21960;BME280;11144;43.030;25.108;2023-07-31T06:27:49;98925.97;;;23.64;67.46
21960;BME280;11144;43.030;25.108;2023-07-31T06:29:22;98927.28;;;23.67;65.75
21960;BME280;11144;43.030;25.108;2023-07-31T06:30:55;98932.34;;;23.68;65.90
21960;BME280;11144;43.030;25.108;2023-07-31T06:32:27;98927.28;;;23.72;66.11
21960;BME280;11144;43.030;25.108;2023-07-31T06:34:01;98929.13;;;23.76;65.87
21960;BME280;11144;43.030;25.108;2023-07-31T06:35:33;98918.41;;;23.76;65.73
21960;BME280;11144;43.030;25.108;2023-07-31T06:37:08;98924.00;;;23.80;64.80
21960;BME280;11144;43.030;25.108;2023-07-31T06:38:40;98923.19;;;23.84;65.73
21960;BME280;11144;43.030;25.108;2023-07-31T06:40:15;98920.72;;;23.93;65.43
21960;BME280;11144;43.030;25.108;2023-07-31T06:41:48;98925.22;;;24.02;65.27
21960;BME280;11144;43.030;25.108;2023-07-31T06:43:21;98903.00;;;23.97;64.05
21960;BME280;11144;43.030;25.108;2023-07-31T06:44:54;98914.44;;;24.17;63.72
21960;BME280;11144;43.030;25.108;2023-07-31T06:46:26;98927.22;;;24.26;63.71
21960;BME280;11144;43.030;25.108;2023-07-31T06:47:59;98920.19;;;24.35;63.26
21960;BME280;11144;43.030;25.108;2023-07-31T06:49:33;98925.00;;;24.38;62.12
21960;BME280;11144;43.030;25.108;2023-07-31T06:51:07;98913.94;;;24.44;63.69
21960;BME280;11144;43.030;25.108;2023-07-31T06:52:40;98915.16;;;24.57;63.49
21960;BME280;11144;43.030;25.108;2023-07-31T06:54:13;98914.81;;;24.68;62.15
21960;BME280;11144;43.030;25.108;2023-07-31T06:55:46;98909.38;;;24.78;61.83
21960;BME280;11144;43.030;25.108;2023-07-31T06:57:20;98910.34;;;24.87;61.10
21960;BME280;11144;43.030;25.108;2023-07-31T06:58:52;98904.81;;;24.79;62.00
21960;BME280;11144;43.030;25.108;2023-07-31T07:00:25;98921.59;;;24.89;61.37
21960;BME280;11144;43.030;25.108;2023-07-31T07:01:58;98913.72;;;24.98;60.84
21960;BME280;11144;43.030;25.108;2023-07-31T07:03:32;98909.28;;;25.12;60.38
21960;BME280;11144;43.030;25.108;2023-07-31T07:05:05;98910.56;;;25.20;60.22
21960;BME280;11144;43.030;25.108;2023-07-31T07:06:40;98903.69;;;25.32;59.75
21960;BME280;11144;43.030;25.108;2023-07-31T07:08:15;98914.06;;;25.39;60.24
21960;BME280;11144;43.030;25.108;2023-07-31T07:09:48;98902.22;;;25.45;59.95
21960;BME280;11144;43.030;25.108;2023-07-31T07:11:22;98908.84;;;25.52;58.92
21960;BME280;11144;43.030;25.108;2023-07-31T07:12:54;98915.66;;;25.64;58.46
21960;BME280;11144;43.030;25.108;2023-07-31T07:14:28;98913.69;;;25.69;58.94
21960;BME280;11144;43.030;25.108;2023-07-31T07:16:00;98903.19;;;25.73;58.45
21960;BME280;11144;43.030;25.108;2023-07-31T07:17:33;98907.84;;;25.86;57.92
21960;BME280;11144;43.030;25.108;2023-07-31T07:19:07;98913.66;;;25.93;57.47
21960;BME280;11144;43.030;25.108;2023-07-31T07:20:39;98910.66;;;25.94;57.23
21960;BME280;11144;43.030;25.108;2023-07-31T07:22:12;98917.50;;;25.87;56.72
21960;BME280;11144;43.030;25.108;2023-07-31T07:23:46;98912.63;;;25.89;56.72
21960;BME280;11144;43.030;25.108;2023-07-31T07:25:19;98912.91;;;25.87;57.00
21960;BME280;11144;43.030;25.108;2023-07-31T07:26:51;98916.91;;;25.90;56.61
21960;BME280;11144;43.030;25.108;2023-07-31T07:28:24;98908.19;;;25.98;55.31
21960;BME280;11144;43.030;25.108;2023-07-31T07:29:57;98907.91;;;25.99;56.88
21960;BME280;11144;43.030;25.108;2023-07-31T07:31:30;98896.22;;;25.90;56.35
21960;BME280;11144;43.030;25.108;2023-07-31T07:33:03;98901.38;;;26.05;56.38
21960;BME280;11144;43.030;25.108;2023-07-31T07:34:37;98914.59;;;26.20;55.53
21960;BME280;11144;43.030;25.108;2023-07-31T07:36:09;98903.22;;;26.28;55.59
21960;BME280;11144;43.030;25.108;2023-07-31T07:37:44;98916.25;;;26.67;54.54
21960;BME280;11144;43.030;25.108;2023-07-31T07:39:19;98904.78;;;27.35;55.18
21960;BME280;11144;43.030;25.108;2023-07-31T07:40:51;98907.78;;;27.96;53.53
21960;BME280;11144;43.030;25.108;2023-07-31T07:42:25;98909.28;;;28.46;54.24
21960;BME280;11144;43.030;25.108;2023-07-31T07:43:57;98896.38;;;28.88;52.50
21960;BME280;11144;43.030;25.108;2023-07-31T07:45:31;98906.91;;;28.98;51.30
21960;BME280;11144;43.030;25.108;2023-07-31T07:47:03;98897.44;;;29.09;53.52
21960;BME280;11144;43.030;25.108;2023-07-31T07:48:38;98899.31;;;29.08;50.66
21960;BME280;11144;43.030;25.108;2023-07-31T07:50:11;98896.88;;;29.21;51.34
21960;BME280;11144;43.030;25.108;2023-07-31T07:51:45;98902.81;;;29.57;50.30
21960;BME280;11144;43.030;25.108;2023-07-31T07:53:17;98896.47;;;29.61;50.60
21960;BME280;11144;43.030;25.108;2023-07-31T07:54:52;98899.03;;;29.58;47.91
21960;BME280;11144;43.030;25.108;2023-07-31T07:56:26;98905.72;;;29.60;48.74
21960;BME280;11144;43.030;25.108;2023-07-31T07:57:58;98896.38;;;29.83;49.13
21960;BME280;11144;43.030;25.108;2023-07-31T07:59:33;98896.16;;;29.63;48.24
21960;BME280;11144;43.030;25.108;2023-07-31T08:01:06;98901.63;;;29.97;47.98
21960;BME280;11144;43.030;25.108;2023-07-31T08:02:38;98889.84;;;30.27;46.70
21960;BME280;11144;43.030;25.108;2023-07-31T08:04:12;98896.19;;;30.23;47.32
21960;BME280;11144;43.030;25.108;2023-07-31T08:05:45;98891.41;;;30.54;46.27
21960;BME280;11144;43.030;25.108;2023-07-31T08:07:18;98891.88;;;30.56;43.62
21960;BME280;11144;43.030;25.108;2023-07-31T08:08:50;98886.03;;;31.00;46.44